Aegean III — SXHY — position and weather

sailwx.info

Track history (hours):
 
Tides and Currents Weather Stations Pressure Air Temp Water Temp Dewpoint Dewpoint Depression Visibility Wind Speed Wind Dir Waves Ship Positions

Aegean III

Last reported at 2017-Sep-24 16:00 UTC. Time now 2017-Sep-24 16:03 UTC.
Position N 38°02' E 023°31'.

Length 80 m; draft 4.5 m.

Type: Tanker. MMSI: 240708000.

Date/timePositionNaut miles runAvg speedWind from/ knotsBaromVisibWave heightAir tempDewpointWater temp
2017-Sep-24 16:00N 38°02' E 023°31'0 0.0
2017-Sep-24 15:30N 38°02' E 023°31'0 0.0
2017-Sep-24 15:01N 38°02' E 023°31'0 0.0
2017-Sep-24 14:30N 38°02' E 023°31'0 0.0
2017-Sep-24 14:01N 38°02' E 023°31'0 0.0
2017-Sep-24 13:30N 38°02' E 023°31'0 0.0
2017-Sep-24 13:00N 38°02' E 023°31'0 0.0
2017-Sep-24 12:30N 38°02' E 023°31'1 1.2
2017-Sep-24 12:01N 38°02' E 023°31'3 5.8
2017-Sep-24 11:30N 38°02' E 023°35'1 1.7
2017-Sep-24 11:00N 38°02' E 023°36'0 0.0
2017-Sep-24 10:31N 38°02' E 023°36'0 0.0
2017-Sep-24 10:01N 38°02' E 023°36'0 0.0
2017-Sep-24 09:30N 38°02' E 023°36'0 0.0
2017-Sep-24 09:01N 38°02' E 023°36'0 0.0
2017-Sep-24 08:31N 38°02' E 023°36'0 0.0
2017-Sep-24 08:00N 38°02' E 023°36'0 0.0
2017-Sep-24 07:31N 38°02' E 023°36'0 0.0
2017-Sep-24 07:00N 38°02' E 023°36'0 0.0
2017-Sep-24 06:31N 38°02' E 023°36'0 1.0
2017-Sep-24 06:00N 38°02' E 023°35'0 0.1
2017-Sep-24 05:30N 38°02' E 023°35'0 0.0
2017-Sep-24 05:00N 38°02' E 023°35'0 0.0
2017-Sep-24 04:30N 38°02' E 023°35'0 0.0
2017-Sep-24 04:00N 38°02' E 023°35'0 0.0
2017-Sep-24 03:30N 38°02' E 023°35'0 0.0
2017-Sep-24 03:00N 38°02' E 023°35'0 0.0
2017-Sep-24 02:30N 38°02' E 023°35'0 0.0
2017-Sep-24 02:00N 38°02' E 023°35'0 0.0
2017-Sep-24 01:31N 38°02' E 023°35'0 0.0
2017-Sep-24 01:00N 38°02' E 023°35'0 0.0
2017-Sep-24 00:30N 38°02' E 023°35'0 0.1
2017-Sep-24 00:01N 38°02' E 023°35'4 8.6
2017-Sep-23 23:30N 38°01' E 023°30'5 9.0
2017-Sep-23 23:00N 37°59' E 023°25'4 7.2
2017-Sep-23 22:31N 37°57' E 023°21'510.1
2017-Sep-23 22:00N 37°55' E 023°15'5 9.7
2017-Sep-23 21:31N 37°54' E 023°09'9 7.5
2017-Sep-23 20:15N 37°57' E 022°58'  
2017-Sep-18 21:50N 37°55' E 023°02'3 8.5
2017-Sep-18 21:29N 37°54' E 023°05'4 8.6
2017-Sep-18 21:00N 37°54' E 023°10'4 9.0
2017-Sep-18 20:30N 37°55' E 023°16'5 9.0
2017-Sep-18 20:00N 37°57' E 023°21'4 7.4
2017-Sep-18 19:30N 37°58' E 023°25'4 7.4
2017-Sep-18 19:01N 38°01' E 023°29'3 5.8
2017-Sep-18 18:30N 38°02' E 023°32'0 0.0
2017-Sep-18 18:00N 38°02' E 023°32'0 0.0
2017-Sep-18 17:31N 38°02' E 023°32'0 0.0
2017-Sep-18 17:00N 38°02' E 023°32'0 0.0
2017-Sep-18 16:30N 38°02' E 023°32'0 0.0
2017-Sep-18 16:00N 38°02' E 023°32'0 0.0
2017-Sep-18 15:30N 38°02' E 023°32'0 0.0
2017-Sep-18 15:01N 38°02' E 023°32'0 0.0
2017-Sep-18 09:01N 38°02' E 023°32'0 0.0
2017-Sep-18 09:00N 38°02' E 023°32'0 0.0
2017-Sep-18 08:30N 38°02' E 023°32'0 0.0
2017-Sep-18 08:00N 38°02' E 023°32'0 0.0
2017-Sep-18 07:30N 38°02' E 023°32'0 0.0
2017-Sep-18 07:00N 38°02' E 023°32'0 0.0
2017-Sep-18 06:30N 38°02' E 023°32'0 0.0
2017-Sep-18 06:00N 38°02' E 023°32'0 0.0
2017-Sep-18 05:30N 38°02' E 023°32'0 0.0
2017-Sep-18 05:00N 38°02' E 023°32'0 0.0
2017-Sep-18 04:30N 38°02' E 023°32'0 0.0
2017-Sep-18 04:00N 38°02' E 023°32'0 0.0
2017-Sep-18 03:30N 38°02' E 023°32'0 0.0
2017-Sep-18 03:00N 38°02' E 023°32'0 0.0
2017-Sep-18 02:30N 38°02' E 023°32'0 0.0
2017-Sep-18 02:00N 38°02' E 023°32'0 0.0
2017-Sep-18 01:30N 38°02' E 023°32'0 0.0
2017-Sep-18 01:00N 38°02' E 023°32'0 0.0
2017-Sep-18 00:30N 38°02' E 023°32'0 0.0
2017-Sep-18 00:00N 38°02' E 023°32'0 0.0
2017-Sep-17 23:30N 38°02' E 023°32'0 0.0
2017-Sep-17 23:00N 38°02' E 023°32'0 0.7
2017-Sep-17 22:30N 38°02' E 023°32'3 5.6
2017-Sep-17 22:00N 38°02' E 023°36'0 0.1
2017-Sep-17 21:30N 38°02' E 023°36'0 0.0
2017-Sep-17 21:00N 38°02' E 023°36'0 0.0
2017-Sep-17 20:30N 38°02' E 023°36'0 0.0
2017-Sep-17 20:00N 38°02' E 023°36'0 0.0
2017-Sep-17 19:30N 38°02' E 023°36'0 0.0
2017-Sep-17 19:00N 38°02' E 023°36'0 0.0
2017-Sep-17 18:30N 38°02' E 023°36'0 0.0
2017-Sep-17 18:00N 38°02' E 023°36'0 0.9
2017-Sep-17 17:30N 38°02' E 023°35'0 0.1
2017-Sep-17 17:00N 38°02' E 023°35'0 0.0
2017-Sep-17 16:30N 38°02' E 023°35'0 0.0
2017-Sep-17 16:00N 38°02' E 023°35'0 0.0
2017-Sep-17 15:30N 38°02' E 023°35'0 0.1
2017-Sep-17 15:00N 38°02' E 023°35'0 0.0
2017-Sep-17 14:31N 38°02' E 023°35'0 0.1
2017-Sep-17 14:00N 38°02' E 023°35'0 0.0
2017-Sep-17 13:28N 38°02' E 023°35'0 0.1
2017-Sep-17 13:00N 38°02' E 023°35'0 0.0
2017-Sep-17 12:30N 38°02' E 023°35'0 0.0
2017-Sep-17 12:00N 38°02' E 023°35'0 0.0
2017-Sep-17 11:30N 38°02' E 023°35'0 0.0
2017-Sep-17 11:00N 38°02' E 023°35'0 0.0
2017-Sep-17 10:31N 38°02' E 023°35'0 0.0
2017-Sep-17 10:00N 38°02' E 023°35'2 4.3
2017-Sep-17 09:30N 38°02' E 023°32'1 2.8
2017-Sep-17 09:00N 38°02' E 023°31'0 0.0
2017-Sep-17 08:30N 38°02' E 023°31'0 0.0
2017-Sep-17 08:00N 38°02' E 023°31'0 0.0
2017-Sep-17 07:30N 38°02' E 023°31'0 0.0
2017-Sep-17 07:01N 38°02' E 023°31'0 0.0
2017-Sep-17 06:30N 38°02' E 023°31'0 0.0
2017-Sep-17 06:00N 38°02' E 023°31'0 0.0
2017-Sep-17 05:30N 38°02' E 023°31'0 0.0
2017-Sep-17 05:00N 38°02' E 023°31'0 0.4
2017-Sep-17 04:30N 38°02' E 023°31'1 1.6
2017-Sep-17 04:00N 38°02' E 023°32'0 0.0
2017-Sep-17 03:30N 38°02' E 023°32'0 0.0
2017-Sep-17 03:00N 38°02' E 023°32'0 0.0
2017-Sep-17 02:30N 38°02' E 023°32'0 0.0
2017-Sep-16 10:17N 38°02' E 023°32'0 0.0
2017-Sep-16 10:00N 38°02' E 023°32'0 0.0
2017-Sep-16 09:31N 38°02' E 023°32'0 0.0
2017-Sep-16 09:00N 38°02' E 023°32'0 0.0
2017-Sep-16 08:31N 38°02' E 023°32'0 0.0
2017-Sep-16 08:00N 38°02' E 023°32'0 0.0
2017-Sep-16 07:30N 38°02' E 023°32'0 0.0
2017-Sep-16 07:00N 38°02' E 023°32'0 0.0
2017-Sep-16 06:31N 38°02' E 023°32'0 0.0
2017-Sep-16 06:00N 38°02' E 023°32'0 0.0
2017-Sep-16 05:30N 38°02' E 023°32'0 0.0
2017-Sep-16 05:00N 38°02' E 023°32'0 0.0
2017-Sep-16 04:30N 38°02' E 023°32'0 0.1
2017-Sep-16 04:00N 38°02' E 023°32'0 0.1
2017-Sep-16 03:31N 38°02' E 023°32'0 0.0
2017-Sep-16 03:01N 38°02' E 023°32'0 0.0
2017-Sep-16 02:30N 38°02' E 023°32'0 0.0
2017-Sep-16 02:00N 38°02' E 023°32'0 0.0
2017-Sep-16 01:30N 38°02' E 023°32'0 0.0
2017-Sep-16 01:00N 38°02' E 023°32'0 0.0
2017-Sep-16 00:30N 38°02' E 023°32'0 0.0
2017-Sep-16 00:00N 38°02' E 023°32'4 7.4
2017-Sep-15 23:31N 38°01' E 023°28'3 6.9
2017-Sep-15 23:01N 37°58' E 023°25'510.1
2017-Sep-15 22:31N 37°56' E 023°19'510.3
2017-Sep-15 22:00N 37°55' E 023°13'5 9.9
2017-Sep-15 21:29N 37°54' E 023°06'  
Track history (hours):
 
Tides and Currents Weather Stations Pressure Air Temp Water Temp Dewpoint Dewpoint Depression Visibility Wind Speed Wind Dir Waves Ship Positions

Aegean III

Last reported at 2017-Sep-24 16:00 UTC. Time now 2017-Sep-24 16:03 UTC.
Position N 38°02' E 023°31'.

Length 80 m; draft 4.5 m.

Type: Tanker. MMSI: 240708000.

Date/timePositionNaut miles runAvg speedWind from/ knotsBaromVisibWave heightAir tempDewpointWater temp
2017-Sep-24 16:00N 38°02' E 023°31'0 0.0
2017-Sep-24 15:30N 38°02' E 023°31'0 0.0
2017-Sep-24 15:01N 38°02' E 023°31'0 0.0
2017-Sep-24 14:30N 38°02' E 023°31'0 0.0
2017-Sep-24 14:01N 38°02' E 023°31'0 0.0
2017-Sep-24 13:30N 38°02' E 023°31'0 0.0
2017-Sep-24 13:00N 38°02' E 023°31'0 0.0
2017-Sep-24 12:30N 38°02' E 023°31'1 1.2
2017-Sep-24 12:01N 38°02' E 023°31'3 5.8
2017-Sep-24 11:30N 38°02' E 023°35'1 1.7
2017-Sep-24 11:00N 38°02' E 023°36'0 0.0
2017-Sep-24 10:31N 38°02' E 023°36'0 0.0
2017-Sep-24 10:01N 38°02' E 023°36'0 0.0
2017-Sep-24 09:30N 38°02' E 023°36'0 0.0
2017-Sep-24 09:01N 38°02' E 023°36'0 0.0
2017-Sep-24 08:31N 38°02' E 023°36'0 0.0
2017-Sep-24 08:00N 38°02' E 023°36'0 0.0
2017-Sep-24 07:31N 38°02' E 023°36'0 0.0
2017-Sep-24 07:00N 38°02' E 023°36'0 0.0
2017-Sep-24 06:31N 38°02' E 023°36'0 1.0
2017-Sep-24 06:00N 38°02' E 023°35'0 0.1
2017-Sep-24 05:30N 38°02' E 023°35'0 0.0
2017-Sep-24 05:00N 38°02' E 023°35'0 0.0
2017-Sep-24 04:30N 38°02' E 023°35'0 0.0
2017-Sep-24 04:00N 38°02' E 023°35'0 0.0
2017-Sep-24 03:30N 38°02' E 023°35'0 0.0
2017-Sep-24 03:00N 38°02' E 023°35'0 0.0
2017-Sep-24 02:30N 38°02' E 023°35'0 0.0
2017-Sep-24 02:00N 38°02' E 023°35'0 0.0
2017-Sep-24 01:31N 38°02' E 023°35'0 0.0
2017-Sep-24 01:00N 38°02' E 023°35'0 0.0
2017-Sep-24 00:30N 38°02' E 023°35'0 0.1
2017-Sep-24 00:01N 38°02' E 023°35'4 8.6
2017-Sep-23 23:30N 38°01' E 023°30'5 9.0
2017-Sep-23 23:00N 37°59' E 023°25'4 7.2
2017-Sep-23 22:31N 37°57' E 023°21'510.1
2017-Sep-23 22:00N 37°55' E 023°15'5 9.7
2017-Sep-23 21:31N 37°54' E 023°09'9 7.5
2017-Sep-23 20:15N 37°57' E 022°58'  
2017-Sep-18 21:50N 37°55' E 023°02'3 8.5
2017-Sep-18 21:29N 37°54' E 023°05'4 8.6
2017-Sep-18 21:00N 37°54' E 023°10'4 9.0
2017-Sep-18 20:30N 37°55' E 023°16'5 9.0
2017-Sep-18 20:00N 37°57' E 023°21'4 7.4
2017-Sep-18 19:30N 37°58' E 023°25'4 7.4
2017-Sep-18 19:01N 38°01' E 023°29'3 5.8
2017-Sep-18 18:30N 38°02' E 023°32'0 0.0
2017-Sep-18 18:00N 38°02' E 023°32'0 0.0
2017-Sep-18 17:31N 38°02' E 023°32'0 0.0
2017-Sep-18 17:00N 38°02' E 023°32'0 0.0
2017-Sep-18 16:30N 38°02' E 023°32'0 0.0
2017-Sep-18 16:00N 38°02' E 023°32'0 0.0
2017-Sep-18 15:30N 38°02' E 023°32'0 0.0
2017-Sep-18 15:01N 38°02' E 023°32'0 0.0
2017-Sep-18 09:01N 38°02' E 023°32'0 0.0
2017-Sep-18 09:00N 38°02' E 023°32'0 0.0
2017-Sep-18 08:30N 38°02' E 023°32'0 0.0
2017-Sep-18 08:00N 38°02' E 023°32'0 0.0
2017-Sep-18 07:30N 38°02' E 023°32'0 0.0
2017-Sep-18 07:00N 38°02' E 023°32'0 0.0
2017-Sep-18 06:30N 38°02' E 023°32'0 0.0
2017-Sep-18 06:00N 38°02' E 023°32'0 0.0
2017-Sep-18 05:30N 38°02' E 023°32'0 0.0
2017-Sep-18 05:00N 38°02' E 023°32'0 0.0
2017-Sep-18 04:30N 38°02' E 023°32'0 0.0
2017-Sep-18 04:00N 38°02' E 023°32'0 0.0
2017-Sep-18 03:30N 38°02' E 023°32'0 0.0
2017-Sep-18 03:00N 38°02' E 023°32'0 0.0
2017-Sep-18 02:30N 38°02' E 023°32'0 0.0
2017-Sep-18 02:00N 38°02' E 023°32'0 0.0
2017-Sep-18 01:30N 38°02' E 023°32'0 0.0
2017-Sep-18 01:00N 38°02' E 023°32'0 0.0
2017-Sep-18 00:30N 38°02' E 023°32'0 0.0
2017-Sep-18 00:00N 38°02' E 023°32'0 0.0
2017-Sep-17 23:30N 38°02' E 023°32'0 0.0
2017-Sep-17 23:00N 38°02' E 023°32'0 0.7
2017-Sep-17 22:30N 38°02' E 023°32'3 5.6
2017-Sep-17 22:00N 38°02' E 023°36'0 0.1
2017-Sep-17 21:30N 38°02' E 023°36'0 0.0
2017-Sep-17 21:00N 38°02' E 023°36'0 0.0
2017-Sep-17 20:30N 38°02' E 023°36'0 0.0
2017-Sep-17 20:00N 38°02' E 023°36'0 0.0
2017-Sep-17 19:30N 38°02' E 023°36'0 0.0
2017-Sep-17 19:00N 38°02' E 023°36'0 0.0
2017-Sep-17 18:30N 38°02' E 023°36'0 0.0
2017-Sep-17 18:00N 38°02' E 023°36'0 0.9
2017-Sep-17 17:30N 38°02' E 023°35'0 0.1
2017-Sep-17 17:00N 38°02' E 023°35'0 0.0
2017-Sep-17 16:30N 38°02' E 023°35'0 0.0
2017-Sep-17 16:00N 38°02' E 023°35'0 0.0
2017-Sep-17 15:30N 38°02' E 023°35'0 0.1
2017-Sep-17 15:00N 38°02' E 023°35'0 0.0
2017-Sep-17 14:31N 38°02' E 023°35'0 0.1
2017-Sep-17 14:00N 38°02' E 023°35'0 0.0
2017-Sep-17 13:28N 38°02' E 023°35'0 0.1
2017-Sep-17 13:00N 38°02' E 023°35'0 0.0
2017-Sep-17 12:30N 38°02' E 023°35'0 0.0
2017-Sep-17 12:00N 38°02' E 023°35'0 0.0
2017-Sep-17 11:30N 38°02' E 023°35'0 0.0
2017-Sep-17 11:00N 38°02' E 023°35'0 0.0
2017-Sep-17 10:31N 38°02' E 023°35'0 0.0
2017-Sep-17 10:00N 38°02' E 023°35'2 4.3
2017-Sep-17 09:30N 38°02' E 023°32'1 2.8
2017-Sep-17 09:00N 38°02' E 023°31'0 0.0
2017-Sep-17 08:30N 38°02' E 023°31'0 0.0
2017-Sep-17 08:00N 38°02' E 023°31'0 0.0
2017-Sep-17 07:30N 38°02' E 023°31'0 0.0
2017-Sep-17 07:01N 38°02' E 023°31'0 0.0
2017-Sep-17 06:30N 38°02' E 023°31'0 0.0
2017-Sep-17 06:00N 38°02' E 023°31'0 0.0
2017-Sep-17 05:30N 38°02' E 023°31'0 0.0
2017-Sep-17 05:00N 38°02' E 023°31'0 0.4
2017-Sep-17 04:30N 38°02' E 023°31'1 1.6
2017-Sep-17 04:00N 38°02' E 023°32'0 0.0
2017-Sep-17 03:30N 38°02' E 023°32'0 0.0
2017-Sep-17 03:00N 38°02' E 023°32'0 0.0
2017-Sep-17 02:30N 38°02' E 023°32'0 0.0
2017-Sep-16 10:17N 38°02' E 023°32'0 0.0
2017-Sep-16 10:00N 38°02' E 023°32'0 0.0
2017-Sep-16 09:31N 38°02' E 023°32'0 0.0
2017-Sep-16 09:00N 38°02' E 023°32'0 0.0
2017-Sep-16 08:31N 38°02' E 023°32'0 0.0
2017-Sep-16 08:00N 38°02' E 023°32'0 0.0
2017-Sep-16 07:30N 38°02' E 023°32'0 0.0
2017-Sep-16 07:00N 38°02' E 023°32'0 0.0
2017-Sep-16 06:31N 38°02' E 023°32'0 0.0
2017-Sep-16 06:00N 38°02' E 023°32'0 0.0
2017-Sep-16 05:30N 38°02' E 023°32'0 0.0
2017-Sep-16 05:00N 38°02' E 023°32'0 0.0
2017-Sep-16 04:30N 38°02' E 023°32'0 0.1
2017-Sep-16 04:00N 38°02' E 023°32'0 0.1
2017-Sep-16 03:31N 38°02' E 023°32'0 0.0
2017-Sep-16 03:01N 38°02' E 023°32'0 0.0
2017-Sep-16 02:30N 38°02' E 023°32'0 0.0
2017-Sep-16 02:00N 38°02' E 023°32'0 0.0
2017-Sep-16 01:30N 38°02' E 023°32'0 0.0
2017-Sep-16 01:00N 38°02' E 023°32'0 0.0
2017-Sep-16 00:30N 38°02' E 023°32'0 0.0
2017-Sep-16 00:00N 38°02' E 023°32'4 7.4
2017-Sep-15 23:31N 38°01' E 023°28'3 6.9
2017-Sep-15 23:01N 37°58' E 023°25'510.1
2017-Sep-15 22:31N 37°56' E 023°19'510.3
2017-Sep-15 22:00N 37°55' E 023°13'5 9.9
2017-Sep-15 21:29N 37°54' E 023°06'  

Dump ship's entire track history